sensor_id;sensor_type;location;lat;lon;timestamp;temperature;humidity
32787;DHT22;19139;49.372;8.580;2023-05-07T00:01:06;24.00;82.50
32787;DHT22;19139;49.372;8.580;2023-05-07T00:03:38;24.00;82.50
32787;DHT22;19139;49.372;8.580;2023-05-07T00:06:05;24.00;82.50
32787;DHT22;19139;49.372;8.580;2023-05-07T00:08:33;24.00;82.50
32787;DHT22;19139;49.372;8.580;2023-05-07T00:10:59;24.00;82.50
32787;DHT22;19139;49.372;8.580;2023-05-07T00:13:26;24.00;82.50
32787;DHT22;19139;49.372;8.580;2023-05-07T00:15:58;24.00;82.50
32787;DHT22;19139;49.372;8.580;2023-05-07T00:18:30;24.00;82.50
32787;DHT22;19139;49.372;8.580;2023-05-07T00:20:56;24.00;82.50
32787;DHT22;19139;49.372;8.580;2023-05-07T00:23:23;24.00;82.50
32787;DHT22;19139;49.372;8.580;2023-05-07T00:25:50;24.00;82.50
32787;DHT22;19139;49.372;8.580;2023-05-07T00:28:16;24.00;82.50
32787;DHT22;19139;49.372;8.580;2023-05-07T00:30:43;24.00;82.50
32787;DHT22;19139;49.372;8.580;2023-05-07T00:33:09;24.00;82.50
32787;DHT22;19139;49.372;8.580;2023-05-07T00:35:36;24.00;82.50
32787;DHT22;19139;49.372;8.580;2023-05-07T00:38:03;24.00;82.50
32787;DHT22;19139;49.372;8.580;2023-05-07T00:40:30;24.00;82.50
32787;DHT22;19139;49.372;8.580;2023-05-07T00:43:01;24.00;82.50
32787;DHT22;19139;49.372;8.580;2023-05-07T00:45:28;24.00;82.50
32787;DHT22;19139;49.372;8.580;2023-05-07T00:48:01;24.00;82.50
32787;DHT22;19139;49.372;8.580;2023-05-07T00:50:28;24.00;82.50
32787;DHT22;19139;49.372;8.580;2023-05-07T00:52:56;24.00;82.50
32787;DHT22;19139;49.372;8.580;2023-05-07T00:55:23;24.00;82.50
32787;DHT22;19139;49.372;8.580;2023-05-07T00:57:51;24.00;82.50
32787;DHT22;19139;49.372;8.580;2023-05-07T01:00:18;24.00;82.50
32787;DHT22;19139;49.372;8.580;2023-05-07T01:02:46;24.00;83.20
32787;DHT22;19139;49.372;8.580;2023-05-07T01:05:16;24.00;82.50
32787;DHT22;19139;49.372;8.580;2023-05-07T01:07:44;24.00;82.60
32787;DHT22;19139;49.372;8.580;2023-05-07T01:10:11;24.00;82.50
32787;DHT22;19139;49.372;8.580;2023-05-07T01:12:40;24.00;82.50
32787;DHT22;19139;49.372;8.580;2023-05-07T01:15:08;24.00;82.50
32787;DHT22;19139;49.372;8.580;2023-05-07T01:17:36;24.00;82.40
32787;DHT22;19139;49.372;8.580;2023-05-07T01:20:08;24.00;82.50
32787;DHT22;19139;49.372;8.580;2023-05-07T01:22:43;24.00;82.40
32787;DHT22;19139;49.372;8.580;2023-05-07T01:25:14;24.00;82.40
32787;DHT22;19139;49.372;8.580;2023-05-07T01:27:42;24.00;82.40
32787;DHT22;19139;49.372;8.580;2023-05-07T01:30:09;24.00;82.40
32787;DHT22;19139;49.372;8.580;2023-05-07T01:32:47;24.00;82.40
32787;DHT22;19139;49.372;8.580;2023-05-07T01:35:26;24.00;82.40
32787;DHT22;19139;49.372;8.580;2023-05-07T01:37:58;24.00;82.40
32787;DHT22;19139;49.372;8.580;2023-05-07T01:40:25;24.00;82.40
32787;DHT22;19139;49.372;8.580;2023-05-07T01:42:58;24.00;82.40
32787;DHT22;19139;49.372;8.580;2023-05-07T01:45:30;24.00;82.40
32787;DHT22;19139;49.372;8.580;2023-05-07T01:48:03;24.00;82.40
32787;DHT22;19139;49.372;8.580;2023-05-07T01:50:35;24.00;82.40
32787;DHT22;19139;49.372;8.580;2023-05-07T01:53:08;24.00;82.40
32787;DHT22;19139;49.372;8.580;2023-05-07T01:55:34;24.00;82.40
32787;DHT22;19139;49.372;8.580;2023-05-07T01:58:03;24.00;82.40
32787;DHT22;19139;49.372;8.580;2023-05-07T02:00:30;23.90;82.40
32787;DHT22;19139;49.372;8.580;2023-05-07T02:02:58;24.00;82.40
32787;DHT22;19139;49.372;8.580;2023-05-07T02:05:25;24.00;82.40
32787;DHT22;19139;49.372;8.580;2023-05-07T02:07:51;23.90;82.30
32787;DHT22;19139;49.372;8.580;2023-05-07T02:10:18;24.00;83.10
32787;DHT22;19139;49.372;8.580;2023-05-07T02:12:45;24.00;82.40
32787;DHT22;19139;49.372;8.580;2023-05-07T02:15:11;24.00;82.40
32787;DHT22;19139;49.372;8.580;2023-05-07T02:18:04;23.90;82.30
32787;DHT22;19139;49.372;8.580;2023-05-07T02:20:31;23.90;82.40
32787;DHT22;19139;49.372;8.580;2023-05-07T02:23:03;24.00;82.50
32787;DHT22;19139;49.372;8.580;2023-05-07T02:25:34;23.90;82.40
32787;DHT22;19139;49.372;8.580;2023-05-07T02:28:06;23.90;82.40
32787;DHT22;19139;49.372;8.580;2023-05-07T02:30:32;23.90;82.40
32787;DHT22;19139;49.372;8.580;2023-05-07T02:33:04;23.90;82.40
32787;DHT22;19139;49.372;8.580;2023-05-07T02:35:31;23.90;82.40
32787;DHT22;19139;49.372;8.580;2023-05-07T02:37:58;23.90;82.40
32787;DHT22;19139;49.372;8.580;2023-05-07T02:40:25;23.90;82.40
32787;DHT22;19139;49.372;8.580;2023-05-07T02:42:51;23.90;82.40
32787;DHT22;19139;49.372;8.580;2023-05-07T02:45:23;23.90;82.40
32787;DHT22;19139;49.372;8.580;2023-05-07T02:47:49;23.90;82.40
32787;DHT22;19139;49.372;8.580;2023-05-07T02:50:16;23.90;82.40
32787;DHT22;19139;49.372;8.580;2023-05-07T02:52:43;23.90;82.40
32787;DHT22;19139;49.372;8.580;2023-05-07T02:55:09;23.90;82.40
32787;DHT22;19139;49.372;8.580;2023-05-07T02:57:36;23.90;82.40
32787;DHT22;19139;49.372;8.580;2023-05-07T03:00:14;23.90;82.40
32787;DHT22;19139;49.372;8.580;2023-05-07T03:02:41;23.90;82.40
32787;DHT22;19139;49.372;8.580;2023-05-07T03:05:08;23.90;82.40
32787;DHT22;19139;49.372;8.580;2023-05-07T03:07:39;23.90;82.40
32787;DHT22;19139;49.372;8.580;2023-05-07T03:10:07;23.90;82.40
32787;DHT22;19139;49.372;8.580;2023-05-07T03:12:35;23.90;82.40
32787;DHT22;19139;49.372;8.580;2023-05-07T03:15:07;23.90;82.40
32787;DHT22;19139;49.372;8.580;2023-05-07T03:17:39;23.90;82.30
32787;DHT22;19139;49.372;8.580;2023-05-07T03:20:06;23.90;82.40
32787;DHT22;19139;49.372;8.580;2023-05-07T03:22:38;23.90;82.30
32787;DHT22;19139;49.372;8.580;2023-05-07T03:25:10;23.90;82.40
32787;DHT22;19139;49.372;8.580;2023-05-07T03:27:37;23.90;82.40
32787;DHT22;19139;49.372;8.580;2023-05-07T03:30:09;23.90;82.30
32787;DHT22;19139;49.372;8.580;2023-05-07T03:32:36;23.90;82.30
32787;DHT22;19139;49.372;8.580;2023-05-07T03:35:08;23.90;82.40
32787;DHT22;19139;49.372;8.580;2023-05-07T03:37:35;23.90;82.40
32787;DHT22;19139;49.372;8.580;2023-05-07T03:40:07;23.90;82.30
32787;DHT22;19139;49.372;8.580;2023-05-07T03:42:39;23.90;82.30
32787;DHT22;19139;49.372;8.580;2023-05-07T03:45:11;23.90;82.20
32787;DHT22;19139;49.372;8.580;2023-05-07T03:47:42;23.90;82.20
32787;DHT22;19139;49.372;8.580;2023-05-07T03:50:09;23.90;82.40
32787;DHT22;19139;49.372;8.580;2023-05-07T03:52:37;23.90;82.30
32787;DHT22;19139;49.372;8.580;2023-05-07T03:55:04;23.90;82.30
32787;DHT22;19139;49.372;8.580;2023-05-07T03:57:32;23.90;82.30
32787;DHT22;19139;49.372;8.580;2023-05-07T03:59:58;23.90;82.30
32787;DHT22;19139;49.372;8.580;2023-05-07T04:02:25;23.90;82.20
32787;DHT22;19139;49.372;8.580;2023-05-07T04:04:52;23.90;82.40
32787;DHT22;19139;49.372;8.580;2023-05-07T04:07:18;23.90;82.30
32787;DHT22;19139;49.372;8.580;2023-05-07T04:09:45;23.90;82.30
32787;DHT22;19139;49.372;8.580;2023-05-07T04:12:16;23.90;82.40
32787;DHT22;19139;49.372;8.580;2023-05-07T04:14:48;23.90;82.20
32787;DHT22;19139;49.372;8.580;2023-05-07T04:17:14;23.90;82.40
32787;DHT22;19139;49.372;8.580;2023-05-07T04:19:41;23.90;82.30
32787;DHT22;19139;49.372;8.580;2023-05-07T04:22:11;23.90;82.40
32787;DHT22;19139;49.372;8.580;2023-05-07T04:24:38;23.90;82.30
32787;DHT22;19139;49.372;8.580;2023-05-07T04:27:05;23.80;82.30
32787;DHT22;19139;49.372;8.580;2023-05-07T04:29:32;23.90;82.30
32787;DHT22;19139;49.372;8.580;2023-05-07T04:31:59;23.90;82.30
32787;DHT22;19139;49.372;8.580;2023-05-07T04:34:26;23.90;82.40
32787;DHT22;19139;49.372;8.580;2023-05-07T04:36:53;23.90;82.40
32787;DHT22;19139;49.372;8.580;2023-05-07T04:39:19;23.80;82.30
32787;DHT22;19139;49.372;8.580;2023-05-07T04:41:46;23.80;82.30
32787;DHT22;19139;49.372;8.580;2023-05-07T04:44:13;23.80;82.30
32787;DHT22;19139;49.372;8.580;2023-05-07T04:46:39;23.80;82.30
32787;DHT22;19139;49.372;8.580;2023-05-07T04:49:06;23.80;82.30
32787;DHT22;19139;49.372;8.580;2023-05-07T04:51:32;23.80;82.30
32787;DHT22;19139;49.372;8.580;2023-05-07T04:53:59;23.80;82.30
32787;DHT22;19139;49.372;8.580;2023-05-07T04:56:28;23.80;82.30
32787;DHT22;19139;49.372;8.580;2023-05-07T04:58:55;23.80;82.30
32787;DHT22;19139;49.372;8.580;2023-05-07T05:01:22;23.80;82.30
32787;DHT22;19139;49.372;8.580;2023-05-07T05:03:48;23.80;82.30
32787;DHT22;19139;49.372;8.580;2023-05-07T05:06:15;23.80;82.30
32787;DHT22;19139;49.372;8.580;2023-05-07T05:08:42;23.80;82.30
32787;DHT22;19139;49.372;8.580;2023-05-07T05:11:08;23.80;82.30
32787;DHT22;19139;49.372;8.580;2023-05-07T05:13:35;23.80;82.30
32787;DHT22;19139;49.372;8.580;2023-05-07T05:16:01;23.80;83.00
32787;DHT22;19139;49.372;8.580;2023-05-07T05:18:28;23.80;82.30
32787;DHT22;19139;49.372;8.580;2023-05-07T05:20:54;23.80;82.30
32787;DHT22;19139;49.372;8.580;2023-05-07T05:23:21;23.80;82.30
32787;DHT22;19139;49.372;8.580;2023-05-07T05:25:48;23.80;82.30
32787;DHT22;19139;49.372;8.580;2023-05-07T05:28:15;23.80;82.30
32787;DHT22;19139;49.372;8.580;2023-05-07T05:30:41;23.80;82.30
32787;DHT22;19139;49.372;8.580;2023-05-07T05:33:08;23.80;82.30
32787;DHT22;19139;49.372;8.580;2023-05-07T05:35:34;23.80;82.30
32787;DHT22;19139;49.372;8.580;2023-05-07T05:38:02;23.80;82.30
32787;DHT22;19139;49.372;8.580;2023-05-07T05:40:29;23.80;82.30
32787;DHT22;19139;49.372;8.580;2023-05-07T05:42:55;23.80;82.30
32787;DHT22;19139;49.372;8.580;2023-05-07T05:45:22;23.80;82.30
32787;DHT22;19139;49.372;8.580;2023-05-07T05:47:49;23.80;82.30
32787;DHT22;19139;49.372;8.580;2023-05-07T05:50:15;23.80;82.30
32787;DHT22;19139;49.372;8.580;2023-05-07T05:52:42;23.80;82.30
32787;DHT22;19139;49.372;8.580;2023-05-07T05:55:09;23.80;82.30
32787;DHT22;19139;49.372;8.580;2023-05-07T05:57:35;23.80;82.30
32787;DHT22;19139;49.372;8.580;2023-05-07T06:00:02;23.80;82.30
32787;DHT22;19139;49.372;8.580;2023-05-07T06:02:30;23.80;82.30
32787;DHT22;19139;49.372;8.580;2023-05-07T06:04:57;23.80;82.40
32787;DHT22;19139;49.372;8.580;2023-05-07T06:07:24;23.80;82.30
32787;DHT22;19139;49.372;8.580;2023-05-07T06:09:50;23.80;82.30
32787;DHT22;19139;49.372;8.580;2023-05-07T06:12:17;23.80;82.30
32787;DHT22;19139;49.372;8.580;2023-05-07T06:14:44;23.80;82.30
32787;DHT22;19139;49.372;8.580;2023-05-07T06:17:15;23.80;82.30
32787;DHT22;19139;49.372;8.580;2023-05-07T06:19:47;23.80;82.20
32787;DHT22;19139;49.372;8.580;2023-05-07T06:22:13;23.80;82.30
32787;DHT22;19139;49.372;8.580;2023-05-07T06:24:40;23.80;82.30
32787;DHT22;19139;49.372;8.580;2023-05-07T06:27:11;23.80;82.30
32787;DHT22;19139;49.372;8.580;2023-05-07T06:29:43;23.80;82.20
32787;DHT22;19139;49.372;8.580;2023-05-07T06:32:11;23.80;82.20
32787;DHT22;19139;49.372;8.580;2023-05-07T06:34:39;23.80;82.20
32787;DHT22;19139;49.372;8.580;2023-05-07T06:37:11;23.80;82.20
32787;DHT22;19139;49.372;8.580;2023-05-07T06:39:37;23.80;82.20
32787;DHT22;19139;49.372;8.580;2023-05-07T06:42:04;23.80;82.30
32787;DHT22;19139;49.372;8.580;2023-05-07T06:44:35;23.80;82.20
32787;DHT22;19139;49.372;8.580;2023-05-07T06:47:07;23.80;82.20
32787;DHT22;19139;49.372;8.580;2023-05-07T06:49:38;23.80;82.20
32787;DHT22;19139;49.372;8.580;2023-05-07T06:52:05;23.80;82.30
32787;DHT22;19139;49.372;8.580;2023-05-07T06:54:32;23.80;82.20
32787;DHT22;19139;49.372;8.580;2023-05-07T06:57:03;23.80;82.20
32787;DHT22;19139;49.372;8.580;2023-05-07T06:59:30;23.80;82.30
32787;DHT22;19139;49.372;8.580;2023-05-07T07:01:56;23.80;82.20
32787;DHT22;19139;49.372;8.580;2023-05-07T07:04:23;23.80;82.30
32787;DHT22;19139;49.372;8.580;2023-05-07T07:06:53;23.80;82.20
32787;DHT22;19139;49.372;8.580;2023-05-07T07:09:20;23.80;82.30
32787;DHT22;19139;49.372;8.580;2023-05-07T07:11:49;23.80;82.20
32787;DHT22;19139;49.372;8.580;2023-05-07T07:14:16;23.80;82.20
32787;DHT22;19139;49.372;8.580;2023-05-07T07:16:42;23.80;82.20
32787;DHT22;19139;49.372;8.580;2023-05-07T07:19:09;23.80;82.30
32787;DHT22;19139;49.372;8.580;2023-05-07T07:21:35;23.80;82.20
32787;DHT22;19139;49.372;8.580;2023-05-07T07:24:02;23.80;82.30
32787;DHT22;19139;49.372;8.580;2023-05-07T07:26:29;23.90;82.30
32787;DHT22;19139;49.372;8.580;2023-05-07T07:28:55;23.80;82.20
32787;DHT22;19139;49.372;8.580;2023-05-07T07:31:22;23.80;82.30
32787;DHT22;19139;49.372;8.580;2023-05-07T07:33:49;23.80;82.20
32787;DHT22;19139;49.372;8.580;2023-05-07T07:36:18;23.80;82.20
32787;DHT22;19139;49.372;8.580;2023-05-07T07:38:45;23.90;82.20
32787;DHT22;19139;49.372;8.580;2023-05-07T07:41:11;23.90;82.20
32787;DHT22;19139;49.372;8.580;2023-05-07T07:43:38;23.80;83.00
32787;DHT22;19139;49.372;8.580;2023-05-07T07:46:05;23.90;82.20
32787;DHT22;19139;49.372;8.580;2023-05-07T07:48:31;23.90;82.20
32787;DHT22;19139;49.372;8.580;2023-05-07T07:50:58;23.90;82.20
32787;DHT22;19139;49.372;8.580;2023-05-07T07:53:25;23.90;82.20
32787;DHT22;19139;49.372;8.580;2023-05-07T07:55:51;23.90;82.10
32787;DHT22;19139;49.372;8.580;2023-05-07T07:58:23;23.90;82.10
32787;DHT22;19139;49.372;8.580;2023-05-07T08:00:51;23.90;82.00
32787;DHT22;19139;49.372;8.580;2023-05-07T08:03:17;23.90;82.10
32787;DHT22;19139;49.372;8.580;2023-05-07T08:05:46;23.90;82.10
32787;DHT22;19139;49.372;8.580;2023-05-07T08:08:17;23.90;82.10
32787;DHT22;19139;49.372;8.580;2023-05-07T08:10:49;23.90;82.10
32787;DHT22;19139;49.372;8.580;2023-05-07T08:13:21;23.90;82.10
32787;DHT22;19139;49.372;8.580;2023-05-07T08:15:48;23.90;82.10
32787;DHT22;19139;49.372;8.580;2023-05-07T08:18:15;23.90;82.20
32787;DHT22;19139;49.372;8.580;2023-05-07T08:20:41;23.90;82.00
32787;DHT22;19139;49.372;8.580;2023-05-07T08:23:08;23.90;82.90
32787;DHT22;19139;49.372;8.580;2023-05-07T08:25:35;23.90;82.10
32787;DHT22;19139;49.372;8.580;2023-05-07T08:28:02;23.90;82.20
32787;DHT22;19139;49.372;8.580;2023-05-07T08:30:29;23.90;82.10
32787;DHT22;19139;49.372;8.580;2023-05-07T08:32:56;23.90;82.20
32787;DHT22;19139;49.372;8.580;2023-05-07T08:35:23;23.90;82.10
32787;DHT22;19139;49.372;8.580;2023-05-07T08:37:49;23.90;82.10
32787;DHT22;19139;49.372;8.580;2023-05-07T08:40:16;24.00;82.10
32787;DHT22;19139;49.372;8.580;2023-05-07T08:42:44;24.00;82.10
32787;DHT22;19139;49.372;8.580;2023-05-07T08:45:11;23.90;82.10
32787;DHT22;19139;49.372;8.580;2023-05-07T08:47:42;23.90;82.10
32787;DHT22;19139;49.372;8.580;2023-05-07T08:50:16;24.00;82.20
32787;DHT22;19139;49.372;8.580;2023-05-07T08:52:42;23.90;82.10
32787;DHT22;19139;49.372;8.580;2023-05-07T08:55:09;23.90;82.10
32787;DHT22;19139;49.372;8.580;2023-05-07T08:57:41;23.90;82.20
32787;DHT22;19139;49.372;8.580;2023-05-07T09:00:13;24.00;84.70
32787;DHT22;19139;49.372;8.580;2023-05-07T09:02:44;23.90;86.40
32787;DHT22;19139;49.372;8.580;2023-05-07T09:05:16;23.90;86.00
32787;DHT22;19139;49.372;8.580;2023-05-07T09:07:43;23.80;85.60
32787;DHT22;19139;49.372;8.580;2023-05-07T09:10:09;23.80;85.40
32787;DHT22;19139;49.372;8.580;2023-05-07T09:12:36;23.90;85.00
32787;DHT22;19139;49.372;8.580;2023-05-07T09:15:03;23.90;86.10
32787;DHT22;19139;49.372;8.580;2023-05-07T09:17:30;23.90;86.00
32787;DHT22;19139;49.372;8.580;2023-05-07T09:20:05;23.90;86.00
32787;DHT22;19139;49.372;8.580;2023-05-07T09:22:37;23.90;85.80
32787;DHT22;19139;49.372;8.580;2023-05-07T09:25:06;23.90;85.70
32787;DHT22;19139;49.372;8.580;2023-05-07T09:27:33;23.90;85.50
32787;DHT22;19139;49.372;8.580;2023-05-07T09:30:03;23.90;85.40
32787;DHT22;19139;49.372;8.580;2023-05-07T09:32:32;23.90;85.30
32787;DHT22;19139;49.372;8.580;2023-05-07T09:34:59;23.90;85.20
32787;DHT22;19139;49.372;8.580;2023-05-07T09:37:26;23.90;85.10
32787;DHT22;19139;49.372;8.580;2023-05-07T09:39:54;23.90;85.00
32787;DHT22;19139;49.372;8.580;2023-05-07T09:42:25;23.90;85.00
32787;DHT22;19139;49.372;8.580;2023-05-07T09:44:55;23.90;84.90
32787;DHT22;19139;49.372;8.580;2023-05-07T09:47:24;23.90;84.90
32787;DHT22;19139;49.372;8.580;2023-05-07T09:49:56;23.90;84.80
32787;DHT22;19139;49.372;8.580;2023-05-07T09:52:29;23.90;84.70
32787;DHT22;19139;49.372;8.580;2023-05-07T09:55:05;23.90;84.70
32787;DHT22;19139;49.372;8.580;2023-05-07T09:57:33;23.90;84.60
32787;DHT22;19139;49.372;8.580;2023-05-07T10:00:02;23.90;84.60
32787;DHT22;19139;49.372;8.580;2023-05-07T10:02:35;23.90;84.50
32787;DHT22;19139;49.372;8.580;2023-05-07T10:05:02;23.90;84.50
32787;DHT22;19139;49.372;8.580;2023-05-07T10:07:30;23.90;84.50
32787;DHT22;19139;49.372;8.580;2023-05-07T10:09:58;23.90;84.40
32787;DHT22;19139;49.372;8.580;2023-05-07T10:12:25;23.90;84.40
32787;DHT22;19139;49.372;8.580;2023-05-07T10:14:53;23.90;84.30
32787;DHT22;19139;49.372;8.580;2023-05-07T10:17:20;23.90;84.30
32787;DHT22;19139;49.372;8.580;2023-05-07T10:19:50;23.90;84.30
32787;DHT22;19139;49.372;8.580;2023-05-07T10:22:20;23.90;84.30
32787;DHT22;19139;49.372;8.580;2023-05-07T10:24:49;23.90;84.30
32787;DHT22;19139;49.372;8.580;2023-05-07T10:27:19;23.90;84.30
32787;DHT22;19139;49.372;8.580;2023-05-07T10:30:09;23.90;84.20
32787;DHT22;19139;49.372;8.580;2023-05-07T10:32:40;23.90;84.20
32787;DHT22;19139;49.372;8.580;2023-05-07T10:35:20;23.90;84.10
32787;DHT22;19139;49.372;8.580;2023-05-07T10:37:48;23.90;84.20
32787;DHT22;19139;49.372;8.580;2023-05-07T10:40:15;23.90;84.10
32787;DHT22;19139;49.372;8.580;2023-05-07T10:42:56;23.90;84.10
32787;DHT22;19139;49.372;8.580;2023-05-07T10:45:24;23.90;84.10
32787;DHT22;19139;49.372;8.580;2023-05-07T10:48:19;23.90;84.10
32787;DHT22;19139;49.372;8.580;2023-05-07T10:51:21;23.90;84.00
32787;DHT22;19139;49.372;8.580;2023-05-07T10:56:41;23.90;84.00
32787;DHT22;19139;49.372;8.580;2023-05-07T11:01:59;23.90;83.90
32787;DHT22;19139;49.372;8.580;2023-05-07T11:04:29;23.90;84.00
32787;DHT22;19139;49.372;8.580;2023-05-07T11:09:55;23.90;83.90
32787;DHT22;19139;49.372;8.580;2023-05-07T11:15:14;23.90;84.00
32787;DHT22;19139;49.372;8.580;2023-05-07T11:17:58;23.90;83.90
32787;DHT22;19139;49.372;8.580;2023-05-07T11:20:58;23.90;83.90
32787;DHT22;19139;49.372;8.580;2023-05-07T11:26:02;23.90;83.90
32787;DHT22;19139;49.372;8.580;2023-05-07T11:28:30;23.90;83.90
32787;DHT22;19139;49.372;8.580;2023-05-07T11:30:58;23.90;83.90
32787;DHT22;19139;49.372;8.580;2023-05-07T11:33:25;23.90;83.90
32787;DHT22;19139;49.372;8.580;2023-05-07T11:35:53;23.90;83.90
32787;DHT22;19139;49.372;8.580;2023-05-07T11:38:21;23.90;83.90
32787;DHT22;19139;49.372;8.580;2023-05-07T11:40:52;23.90;83.90
32787;DHT22;19139;49.372;8.580;2023-05-07T11:43:19;23.90;83.90
32787;DHT22;19139;49.372;8.580;2023-05-07T11:45:46;23.90;83.80
32787;DHT22;19139;49.372;8.580;2023-05-07T11:48:16;23.90;83.80
32787;DHT22;19139;49.372;8.580;2023-05-07T11:50:54;23.90;83.80
32787;DHT22;19139;49.372;8.580;2023-05-07T11:53:24;23.90;83.80
32787;DHT22;19139;49.372;8.580;2023-05-07T11:55:57;23.90;83.80
32787;DHT22;19139;49.372;8.580;2023-05-07T11:58:25;23.90;83.80
32787;DHT22;19139;49.372;8.580;2023-05-07T12:00:54;23.90;83.80
32787;DHT22;19139;49.372;8.580;2023-05-07T12:03:21;23.90;84.60
32787;DHT22;19139;49.372;8.580;2023-05-07T12:05:48;24.00;84.70
32787;DHT22;19139;49.372;8.580;2023-05-07T12:08:16;23.90;83.80
32787;DHT22;19139;49.372;8.580;2023-05-07T12:10:44;24.00;83.90
32787;DHT22;19139;49.372;8.580;2023-05-07T12:13:22;24.00;83.90
32787;DHT22;19139;49.372;8.580;2023-05-07T12:15:53;24.00;83.90
32787;DHT22;19139;49.372;8.580;2023-05-07T12:18:21;24.00;83.90
32787;DHT22;19139;49.372;8.580;2023-05-07T12:20:49;23.90;83.80
32787;DHT22;19139;49.372;8.580;2023-05-07T12:23:17;24.00;83.90
32787;DHT22;19139;49.372;8.580;2023-05-07T12:25:44;24.00;83.90
32787;DHT22;19139;49.372;8.580;2023-05-07T12:28:15;24.00;83.90
32787;DHT22;19139;49.372;8.580;2023-05-07T12:30:44;24.00;83.90
32787;DHT22;19139;49.372;8.580;2023-05-07T12:33:11;24.00;83.90
32787;DHT22;19139;49.372;8.580;2023-05-07T12:35:42;24.00;83.90
32787;DHT22;19139;49.372;8.580;2023-05-07T12:38:13;24.00;83.90
32787;DHT22;19139;49.372;8.580;2023-05-07T12:40:42;24.00;83.90
32787;DHT22;19139;49.372;8.580;2023-05-07T12:43:25;24.00;84.00
32787;DHT22;19139;49.372;8.580;2023-05-07T12:45:57;24.00;84.10
32787;DHT22;19139;49.372;8.580;2023-05-07T12:48:26;24.00;83.90
32787;DHT22;19139;49.372;8.580;2023-05-07T12:51:01;24.00;83.90
32787;DHT22;19139;49.372;8.580;2023-05-07T12:53:29;24.00;83.90
32787;DHT22;19139;49.372;8.580;2023-05-07T12:55:57;24.00;83.90
32787;DHT22;19139;49.372;8.580;2023-05-07T12:58:32;24.00;84.70
32787;DHT22;19139;49.372;8.580;2023-05-07T13:04:12;24.00;83.90
32787;DHT22;19139;49.372;8.580;2023-05-07T13:06:39;24.00;83.90
32787;DHT22;19139;49.372;8.580;2023-05-07T13:09:06;24.00;83.90
32787;DHT22;19139;49.372;8.580;2023-05-07T13:11:33;24.00;83.90
32787;DHT22;19139;49.372;8.580;2023-05-07T13:14:00;24.00;83.90
32787;DHT22;19139;49.372;8.580;2023-05-07T13:16:31;24.00;83.90
32787;DHT22;19139;49.372;8.580;2023-05-07T13:18:58;24.00;83.90
32787;DHT22;19139;49.372;8.580;2023-05-07T13:21:25;24.00;83.90
32787;DHT22;19139;49.372;8.580;2023-05-07T13:24:21;24.00;83.90
32787;DHT22;19139;49.372;8.580;2023-05-07T13:26:49;24.00;83.90
32787;DHT22;19139;49.372;8.580;2023-05-07T13:29:34;24.00;83.90
32787;DHT22;19139;49.372;8.580;2023-05-07T13:32:02;24.00;83.90
32787;DHT22;19139;49.372;8.580;2023-05-07T13:34:29;24.00;83.80
32787;DHT22;19139;49.372;8.580;2023-05-07T13:36:55;24.00;83.90
32787;DHT22;19139;49.372;8.580;2023-05-07T13:39:22;24.00;83.90
32787;DHT22;19139;49.372;8.580;2023-05-07T13:41:53;24.00;83.90
32787;DHT22;19139;49.372;8.580;2023-05-07T13:44:20;24.00;83.80
32787;DHT22;19139;49.372;8.580;2023-05-07T13:46:47;24.00;83.90
32787;DHT22;19139;49.372;8.580;2023-05-07T13:49:13;24.00;83.90
32787;DHT22;19139;49.372;8.580;2023-05-07T13:51:40;24.00;83.80
32787;DHT22;19139;49.372;8.580;2023-05-07T13:54:06;24.00;83.80
32787;DHT22;19139;49.372;8.580;2023-05-07T13:56:33;24.00;83.90
32787;DHT22;19139;49.372;8.580;2023-05-07T13:59:00;24.00;83.90
32787;DHT22;19139;49.372;8.580;2023-05-07T14:01:27;24.00;83.90
32787;DHT22;19139;49.372;8.580;2023-05-07T14:03:55;24.00;83.90
32787;DHT22;19139;49.372;8.580;2023-05-07T14:06:21;24.00;83.80
32787;DHT22;19139;49.372;8.580;2023-05-07T14:08:48;24.00;83.90
32787;DHT22;19139;49.372;8.580;2023-05-07T14:11:19;24.00;83.80
32787;DHT22;19139;49.372;8.580;2023-05-07T14:13:52;24.00;83.90
32787;DHT22;19139;49.372;8.580;2023-05-07T14:16:19;24.00;83.90
32787;DHT22;19139;49.372;8.580;2023-05-07T14:18:50;24.00;83.90
32787;DHT22;19139;49.372;8.580;2023-05-07T14:21:17;24.10;83.90
32787;DHT22;19139;49.372;8.580;2023-05-07T14:23:48;24.00;83.90
32787;DHT22;19139;49.372;8.580;2023-05-07T14:26:15;24.00;83.80
32787;DHT22;19139;49.372;8.580;2023-05-07T14:28:42;24.00;83.80
32787;DHT22;19139;49.372;8.580;2023-05-07T14:31:12;24.10;83.80
32787;DHT22;19139;49.372;8.580;2023-05-07T14:33:44;24.00;83.80
32787;DHT22;19139;49.372;8.580;2023-05-07T14:36:16;24.00;83.80
32787;DHT22;19139;49.372;8.580;2023-05-07T14:38:43;24.10;83.90
32787;DHT22;19139;49.372;8.580;2023-05-07T14:41:10;24.00;83.80
32787;DHT22;19139;49.372;8.580;2023-05-07T14:43:36;24.00;83.80
32787;DHT22;19139;49.372;8.580;2023-05-07T14:46:03;24.00;83.70
32787;DHT22;19139;49.372;8.580;2023-05-07T14:48:30;24.10;83.90
32787;DHT22;19139;49.372;8.580;2023-05-07T14:51:01;24.10;84.00
32787;DHT22;19139;49.372;8.580;2023-05-07T14:53:33;24.00;83.80
32787;DHT22;19139;49.372;8.580;2023-05-07T14:56:04;24.10;84.00
32787;DHT22;19139;49.372;8.580;2023-05-07T14:58:32;24.10;84.10
32787;DHT22;19139;49.372;8.580;2023-05-07T15:00:59;24.10;84.20
32787;DHT22;19139;49.372;8.580;2023-05-07T15:03:26;24.10;84.50
32787;DHT22;19139;49.372;8.580;2023-05-07T15:05:53;24.10;84.70
32787;DHT22;19139;49.372;8.580;2023-05-07T15:08:20;24.10;85.20
32787;DHT22;19139;49.372;8.580;2023-05-07T15:10:46;24.20;86.20
32787;DHT22;19139;49.372;8.580;2023-05-07T15:13:13;24.20;87.30
32787;DHT22;19139;49.372;8.580;2023-05-07T15:15:42;24.20;86.80
32787;DHT22;19139;49.372;8.580;2023-05-07T15:18:12;24.20;87.20
32787;DHT22;19139;49.372;8.580;2023-05-07T15:20:40;24.20;87.50
32787;DHT22;19139;49.372;8.580;2023-05-07T15:23:07;24.20;87.90
32787;DHT22;19139;49.372;8.580;2023-05-07T15:25:39;24.30;87.90
32787;DHT22;19139;49.372;8.580;2023-05-07T15:28:06;24.30;88.30
32787;DHT22;19139;49.372;8.580;2023-05-07T15:30:33;24.30;88.50
32787;DHT22;19139;49.372;8.580;2023-05-07T15:33:01;24.30;88.80
32787;DHT22;19139;49.372;8.580;2023-05-07T15:35:28;24.30;89.10
32787;DHT22;19139;49.372;8.580;2023-05-07T15:37:55;24.30;89.40
32787;DHT22;19139;49.372;8.580;2023-05-07T15:40:22;24.40;89.50
32787;DHT22;19139;49.372;8.580;2023-05-07T15:42:48;24.40;89.70
32787;DHT22;19139;49.372;8.580;2023-05-07T15:45:15;24.40;90.00
32787;DHT22;19139;49.372;8.580;2023-05-07T15:47:42;24.40;89.50
32787;DHT22;19139;49.372;8.580;2023-05-07T15:50:08;24.30;89.50
32787;DHT22;19139;49.372;8.580;2023-05-07T15:52:35;24.30;90.00
32787;DHT22;19139;49.372;8.580;2023-05-07T15:55:02;24.30;90.40
32787;DHT22;19139;49.372;8.580;2023-05-07T15:57:29;24.20;90.70